Time;durP1;ratioP1;P1;durP2;ratioP2;P2;SDS_P1;SDS_P2;PMS_P1;PMS_P2;Temp;Humidity;BMP_temperature;BMP_pressure;BME280_temperature;BME280_humidity;BME280_pressure;Samples;Min_cycle;Max_cycle;Signal;HPM_P1;HPM_P2
2023/09/28 00:00:35;;;;;;;5.53;5.03;;;15.60;99.90;;;;;;5067063;28;20228;-81
2023/09/28 00:02:47;;;;;;;6.47;5.53;;;15.60;99.90;;;;;;5045110;28;20598;-81
2023/09/28 00:05:15;;;;;;;5.50;4.77;;;15.60;99.90;;;;;;5068104;28;21016;-81
2023/09/28 00:07:43;;;;;;;6.73;5.80;;;15.50;99.90;;;;;;5071011;28;20227;-80
2023/09/28 00:10:12;;;;;;;7.40;5.30;;;15.50;99.90;;;;;;5049287;28;20317;-81
2023/09/28 00:12:40;;;;;;;7.27;5.50;;;15.50;99.90;;;;;;5068519;28;20254;-81
2023/09/28 00:15:09;;;;;;;6.23;5.30;;;15.50;99.90;;;;;;5048348;28;20223;-81
2023/09/28 00:17:34;;;;;;;7.70;5.33;;;15.50;99.90;;;;;;5043633;28;20632;-81
2023/09/28 00:20:04;;;;;;;6.77;5.37;;;15.40;99.90;;;;;;5067430;28;20231;-80
2023/09/28 00:22:30;;;;;;;6.33;5.60;;;15.40;99.90;;;;;;5066217;28;20227;-80
2023/09/28 00:24:58;;;;;;;6.13;5.53;;;15.40;99.90;;;;;;5063955;28;20655;-81
2023/09/28 00:27:25;;;;;;;6.67;5.10;;;15.40;99.90;;;;;;5048020;28;20239;-81
2023/09/28 00:29:52;;;;;;;6.80;5.90;;;15.30;99.90;;;;;;5051183;28;20306;-81
2023/09/28 00:32:18;;;;;;;6.30;5.70;;;15.30;99.90;;;;;;5047663;28;20883;-80
2023/09/28 00:34:44;;;;;;;6.53;5.87;;;15.30;99.90;;;;;;5056835;28;20258;-81
2023/09/28 00:37:11;;;;;;;6.60;5.70;;;15.20;99.90;;;;;;5049037;28;20253;-80
2023/09/28 00:39:38;;;;;;;7.20;5.90;;;15.20;99.90;;;;;;5047777;28;20748;-81
2023/09/28 00:42:05;;;;;;;7.07;6.07;;;15.20;99.90;;;;;;5047930;28;20915;-81
2023/09/28 00:44:32;;;;;;;8.30;6.00;;;15.20;99.90;;;;;;5066360;28;20251;-80
2023/09/28 00:46:57;;;;;;;7.47;6.33;;;15.10;99.90;;;;;;5055900;28;20310;-80
2023/09/28 00:49:25;;;;;;;7.60;5.60;;;15.10;99.90;;;;;;5070742;28;20234;-80
2023/09/28 00:51:51;;;;;;;6.33;5.73;;;15.10;99.90;;;;;;5052885;28;20261;-80
2023/09/28 00:54:21;;;;;;;6.80;6.10;;;15.10;99.90;;;;;;5068958;28;20783;-80
2023/09/28 00:56:48;;;;;;;8.63;6.00;;;15.10;99.90;;;;;;5066276;28;20300;-81
2023/09/28 00:59:16;;;;;;;6.10;5.53;;;15.00;99.90;;;;;;5067583;28;20294;-81
2023/09/28 01:01:42;;;;;;;7.33;5.80;;;15.00;99.90;;;;;;5068985;28;20232;-81
2023/09/28 01:04:09;;;;;;;6.83;6.13;;;15.00;99.90;;;;;;5050542;28;20211;-82
2023/09/28 01:06:35;;;;;;;8.60;6.23;;;15.00;99.90;;;;;;5073401;28;20234;-81
2023/09/28 01:09:06;;;;;;;6.90;6.30;;;15.00;99.90;;;;;;5054201;28;20436;-81
2023/09/28 01:11:32;;;;;;;7.10;6.37;;;14.90;99.90;;;;;;5051136;28;20223;-81
2023/09/28 01:14:01;;;;;;;7.30;6.57;;;14.90;99.90;;;;;;5058025;28;20269;-81
2023/09/28 01:16:29;;;;;;;6.10;5.50;;;14.90;99.90;;;;;;5050771;28;20218;-81
2023/09/28 01:18:57;;;;;;;7.37;5.87;;;14.90;99.90;;;;;;5070876;28;20223;-81
2023/09/28 01:21:24;;;;;;;5.93;5.37;;;14.90;99.90;;;;;;5053410;28;20495;-81
2023/09/28 01:23:52;;;;;;;6.43;5.57;;;14.80;99.90;;;;;;5051519;28;20219;-81
2023/09/28 01:26:19;;;;;;;7.47;5.90;;;14.80;99.90;;;;;;5065926;28;20230;-80
2023/09/28 01:28:46;;;;;;;6.40;5.77;;;14.80;99.90;;;;;;5052945;28;20917;-80
2023/09/28 01:31:12;;;;;;;9.47;6.90;;;14.70;99.90;;;;;;5068947;28;20261;-80
2023/09/28 01:33:39;;;;;;;8.73;6.87;;;14.70;99.90;;;;;;5066813;28;20300;-81
2023/09/28 01:36:07;;;;;;;6.57;5.90;;;14.70;99.90;;;;;;5048783;28;20617;-81
2023/09/28 01:38:40;;;;;;;7.77;6.33;;;14.70;99.90;;;;;;5052668;28;20229;-81
2023/09/28 01:41:08;;;;;;;14.40;6.60;;;14.60;99.90;;;;;;5053358;28;20238;-81
2023/09/28 01:43:36;;;;;;;8.30;6.70;;;14.60;99.90;;;;;;5052294;28;20226;-81
2023/09/28 01:46:03;;;;;;;8.33;6.93;;;14.60;99.90;;;;;;5055326;28;20246;-80
2023/09/28 01:48:29;;;;;;;7.87;7.13;;;14.60;99.90;;;;;;5072497;28;20844;-80
2023/09/28 01:50:55;;;;;;;7.93;7.13;;;14.50;99.90;;;;;;5075791;28;20218;-80
2023/09/28 01:53:22;;;;;;;8.60;7.03;;;14.50;99.90;;;;;;5065519;28;20220;-81
2023/09/28 01:55:48;;;;;;;8.53;7.27;;;14.50;99.90;;;;;;5070965;28;20970;-81
2023/09/28 01:58:17;;;;;;;9.53;7.43;;;14.50;99.90;;;;;;5052871;28;20253;-81
2023/09/28 02:00:45;;;;;;;10.23;7.20;;;14.50;99.90;;;;;;5053965;28;20262;-80
2023/09/28 02:03:14;;;;;;;7.93;7.13;;;14.50;99.90;;;;;;5055272;28;20214;-80
2023/09/28 02:05:40;;;;;;;8.27;7.47;;;14.50;99.90;;;;;;5049835;28;20855;-81
2023/09/28 02:08:07;;;;;;;10.30;7.77;;;14.50;99.90;;;;;;5050236;28;20288;-81
2023/09/28 02:10:33;;;;;;;8.87;7.83;;;14.50;99.90;;;;;;5052815;28;20254;-81
2023/09/28 02:13:00;;;;;;;8.60;7.43;;;14.50;99.90;;;;;;5074218;28;20825;-81
2023/09/28 02:15:27;;;;;;;9.57;7.73;;;14.50;99.90;;;;;;5053931;28;20219;-81
2023/09/28 02:17:53;;;;;;;9.30;8.10;;;14.50;99.90;;;;;;5048374;28;20234;-80
2023/09/28 02:20:22;;;;;;;9.97;8.23;;;14.50;99.90;;;;;;5050714;28;20222;-81
2023/09/28 02:22:52;;;;;;;8.27;7.13;;;14.50;99.90;;;;;;5066776;28;20234;-81
2023/09/28 02:25:19;;;;;;;8.40;7.50;;;14.50;99.90;;;;;;5073775;28;20362;-81
2023/09/28 02:27:47;;;;;;;11.23;8.27;;;14.50;99.90;;;;;;5065844;28;20219;-81
2023/09/28 02:30:17;;;;;;;12.50;8.13;;;14.50;99.90;;;;;;5052189;28;20226;-81
2023/09/28 02:32:45;;;;;;;10.00;8.60;;;14.50;99.90;;;;;;5069325;28;20221;-81
2023/09/28 02:35:13;;;;;;;10.50;8.13;;;14.50;99.90;;;;;;5063813;28;20656;-81
2023/09/28 02:37:41;;;;;;;9.83;7.93;;;14.50;99.90;;;;;;5049895;28;20279;-81
2023/09/28 02:40:09;;;;;;;10.00;8.07;;;14.50;99.90;;;;;;5054669;28;20259;-81
2023/09/28 02:42:36;;;;;;;9.43;7.97;;;14.50;99.90;;;;;;5049821;28;20360;-81
2023/09/28 02:45:09;;;;;;;11.13;7.63;;;14.40;99.90;;;;;;5067524;28;20222;-81
2023/09/28 02:47:35;;;;;;;10.03;8.70;;;14.40;99.90;;;;;;5046714;28;20234;-81
2023/09/28 02:50:06;;;;;;;11.37;8.20;;;14.50;99.90;;;;;;5049770;28;20214;-80
2023/09/28 02:52:33;;;;;;;9.40;8.33;;;14.40;99.90;;;;;;5071251;28;20238;-81
2023/09/28 02:55:02;;;;;;;10.37;7.67;;;14.40;99.90;;;;;;5066589;28;20611;-80
2023/09/28 02:57:29;;;;;;;10.07;8.90;;;14.40;99.90;;;;;;5071116;28;20218;-81
2023/09/28 02:59:55;;;;;;;10.50;8.80;;;14.30;99.90;;;;;;5067384;28;20222;-80
2023/09/28 03:02:22;;;;;;;11.10;8.20;;;14.30;99.90;;;;;;5065374;28;20254;-81
2023/09/28 03:04:48;;;;;;;9.83;8.83;;;14.30;99.90;;;;;;5062991;28;20231;-81
2023/09/28 03:07:16;;;;;;;10.00;9.10;;;14.30;99.90;;;;;;5049019;28;20224;-81
2023/09/28 03:09:42;;;;;;;12.43;8.87;;;14.30;99.90;;;;;;5063436;28;20226;-80
2023/09/28 03:12:10;;;;;;;12.93;10.47;;;14.20;99.90;;;;;;5055182;28;20684;-80
2023/09/28 03:14:37;;;;;;;13.07;10.40;;;14.20;99.90;;;;;;5046824;28;20314;-81
2023/09/28 03:17:04;;;;;;;13.27;10.27;;;14.20;99.90;;;;;;5055378;28;20222;-81
2023/09/28 03:19:31;;;;;;;11.27;9.97;;;14.20;99.90;;;;;;5053353;28;20256;-81
2023/09/28 03:21:57;;;;;;;13.27;10.73;;;14.20;99.90;;;;;;5071720;28;20222;-81
2023/09/28 03:24:24;;;;;;;11.80;10.60;;;14.20;99.90;;;;;;5077810;28;20236;-80
2023/09/28 03:26:51;;;;;;;12.10;10.80;;;14.20;99.90;;;;;;5054471;28;20954;-80
2023/09/28 03:29:17;;;;;;;12.27;11.03;;;14.20;99.90;;;;;;5046453;28;20773;-79
2023/09/28 03:31:44;;;;;;;14.50;11.27;;;14.20;99.90;;;;;;5047468;28;20298;-82
2023/09/28 03:34:10;;;;;;;12.50;10.77;;;14.20;99.90;;;;;;5064766;28;20317;-83
2023/09/28 03:36:37;;;;;;;11.83;10.63;;;14.20;99.90;;;;;;5065103;28;20293;-82
2023/09/28 03:39:04;;;;;;;12.63;10.80;;;14.20;99.90;;;;;;5057631;28;20320;-82
2023/09/28 03:41:32;;;;;;;11.63;10.40;;;14.20;99.90;;;;;;5063060;28;20802;-82
2023/09/28 03:43:59;;;;;;;12.87;10.73;;;14.20;99.90;;;;;;5046420;28;20277;-82
2023/09/28 03:46:25;;;;;;;11.73;10.53;;;14.20;99.90;;;;;;5051635;28;20691;-81
2023/09/28 03:48:52;;;;;;;13.10;11.33;;;14.20;99.90;;;;;;5052338;28;20244;-81
2023/09/28 03:51:19;;;;;;;15.50;11.23;;;14.20;99.90;;;;;;5065031;28;20225;-81
2023/09/28 03:53:45;;;;;;;12.53;10.40;;;14.20;99.90;;;;;;5066930;28;20234;-81
2023/09/28 03:56:12;;;;;;;12.37;11.00;;;14.20;99.90;;;;;;5071832;28;20233;-81
2023/09/28 03:58:40;;;;;;;15.90;11.27;;;14.20;99.90;;;;;;5048636;28;20229;-81
2023/09/28 04:01:08;;;;;;;12.53;11.30;;;14.20;99.90;;;;;;5069308;28;20539;-79
2023/09/28 04:03:36;;;;;;;12.33;10.80;;;14.20;99.90;;;;;;5065556;28;20223;-79
2023/09/28 04:06:03;;;;;;;13.67;11.10;;;14.20;99.90;;;;;;5062763;28;20223;-80
2023/09/28 04:08:30;;;;;;;13.37;11.50;;;14.20;99.90;;;;;;5061526;28;20222;-80
2023/09/28 04:10:57;;;;;;;12.67;11.03;;;14.20;99.90;;;;;;5063069;28;20246;-80
2023/09/28 04:13:24;;;;;;;11.33;10.20;;;14.20;99.90;;;;;;5065771;28;20257;-80
2023/09/28 04:15:53;;;;;;;12.73;11.00;;;14.20;99.90;;;;;;5067728;28;20246;-80
2023/09/28 04:18:20;;;;;;;15.20;10.67;;;14.20;99.90;;;;;;5069853;28;20317;-80
2023/09/28 04:20:47;;;;;;;15.17;11.33;;;14.20;99.90;;;;;;5065736;28;20282;-81
2023/09/28 04:23:13;;;;;;;13.13;10.20;;;14.20;99.90;;;;;;5071425;28;20226;-79
2023/09/28 04:25:40;;;;;;;11.53;10.33;;;14.30;99.90;;;;;;5062704;28;20229;-79
2023/09/28 04:28:07;;;;;;;12.20;10.87;;;14.30;99.90;;;;;;5067397;28;21017;-80
2023/09/28 04:30:36;;;;;;;13.53;10.50;;;14.30;99.90;;;;;;5066038;28;20229;-79
2023/09/28 04:33:04;;;;;;;16.27;11.37;;;14.30;99.90;;;;;;5071147;28;20217;-82
2023/09/28 04:35:31;;;;;;;14.03;10.83;;;14.30;99.90;;;;;;5041441;28;20236;-81
2023/09/28 04:37:58;;;;;;;12.30;10.97;;;14.30;99.90;;;;;;5045753;28;20253;-82
2023/09/28 04:40:25;;;;;;;13.73;10.90;;;14.30;99.90;;;;;;5058698;28;20241;-83
2023/09/28 04:42:53;;;;;;;14.03;11.00;;;14.30;99.90;;;;;;5061665;28;20296;-82
2023/09/28 04:45:20;;;;;;;11.67;10.47;;;14.40;99.90;;;;;;5043078;28;20468;-82
2023/09/28 04:47:47;;;;;;;14.47;10.53;;;14.40;99.90;;;;;;5059671;28;20222;-82
2023/09/28 04:50:16;;;;;;;12.07;10.33;;;14.40;99.90;;;;;;5050846;28;20226;-82
2023/09/28 04:52:43;;;;;;;11.77;10.50;;;14.40;99.90;;;;;;5069103;28;20887;-82
2023/09/28 04:55:11;;;;;;;12.33;10.73;;;14.40;99.90;;;;;;5054056;28;20287;-82
2023/09/28 04:57:37;;;;;;;12.30;10.23;;;14.40;99.90;;;;;;5051405;28;20258;-82
2023/09/28 05:00:07;;;;;;;12.03;10.83;;;14.50;99.90;;;;;;5066139;28;20230;-84
2023/09/28 05:02:33;;;;;;;12.40;10.60;;;14.50;99.90;;;;;;5048009;28;20280;-84
2023/09/28 05:05:00;;;;;;;16.27;11.43;;;14.50;99.90;;;;;;5059683;28;20214;-83
2023/09/28 05:07:28;;;;;;;12.90;10.77;;;14.50;99.90;;;;;;5046210;28;20234;-83
2023/09/28 05:09:55;;;;;;;14.83;11.07;;;14.50;99.90;;;;;;5051441;28;21128;-82
2023/09/28 05:12:21;;;;;;;13.80;10.90;;;14.60;99.90;;;;;;5046790;28;20602;-83
2023/09/28 05:14:48;;;;;;;14.37;10.67;;;14.60;99.90;;;;;;5048128;28;20222;-84
2023/09/28 05:17:15;;;;;;;12.37;10.27;;;14.60;99.90;;;;;;5053473;28;20230;-83
2023/09/28 05:19:42;;;;;;;11.30;10.03;;;14.70;99.90;;;;;;5046296;28;20306;-83
2023/09/28 05:22:10;;;;;;;11.17;9.97;;;14.70;99.90;;;;;;5068837;28;20227;-83
2023/09/28 05:24:38;;;;;;;10.87;9.77;;;14.70;99.90;;;;;;5050722;28;20302;-83
2023/09/28 05:27:05;;;;;;;11.30;9.90;;;14.80;99.90;;;;;;5049174;28;20305;-85
2023/09/28 05:29:32;;;;;;;10.77;9.63;;;14.80;99.90;;;;;;5052834;28;20226;-85
2023/09/28 05:31:59;;;;;;;10.63;9.20;;;14.90;99.90;;;;;;5041938;28;20220;-85
2023/09/28 05:34:25;;;;;;;12.60;10.33;;;14.90;99.90;;;;;;5048421;28;20305;-84
2023/09/28 05:36:52;;;;;;;12.87;10.60;;;14.90;99.90;;;;;;5048537;28;20911;-85
2023/09/28 05:39:19;;;;;;;11.10;9.63;;;15.00;99.90;;;;;;5065711;28;20229;-85
2023/09/28 05:41:48;;;;;;;13.13;10.30;;;15.00;99.90;;;;;;5046602;28;20238;-85
2023/09/28 05:44:15;;;;;;;11.83;9.23;;;15.00;99.90;;;;;;5046487;28;21904;-85
2023/09/28 05:46:42;;;;;;;11.00;9.80;;;15.00;99.90;;;;;;5066414;28;20230;-85
2023/09/28 05:49:09;;;;;;;13.73;10.00;;;15.00;99.90;;;;;;5049415;28;20976;-85
2023/09/28 05:51:35;;;;;;;11.23;10.03;;;15.00;99.90;;;;;;5045621;28;20250;-85
2023/09/28 05:54:03;;;;;;;13.13;10.03;;;15.10;99.90;;;;;;5065452;28;20959;-85
2023/09/28 05:56:30;;;;;;;12.73;10.20;;;15.10;99.90;;;;;;5085236;28;20285;-84
2023/09/28 05:58:58;;;;;;;12.27;10.20;;;15.00;99.90;;;;;;5067455;28;20333;-86
2023/09/28 06:01:25;;;;;;;11.73;9.93;;;15.10;99.90;;;;;;5079245;28;20249;-84
2023/09/28 06:03:51;;;;;;;11.47;10.13;;;15.10;99.90;;;;;;5063000;28;20218;-85
2023/09/28 06:06:20;;;;;;;10.50;9.40;;;15.10;99.90;;;;;;5069859;28;20234;-83
2023/09/28 06:08:47;;;;;;;11.00;9.83;;;15.10;99.90;;;;;;5070471;28;20253;-85
2023/09/28 06:11:15;;;;;;;10.93;9.60;;;15.10;99.90;;;;;;5069664;28;20235;-84
2023/09/28 06:13:43;;;;;;;11.90;9.40;;;15.20;99.90;;;;;;5057976;28;20752;-85
2023/09/28 06:16:13;;;;;;;13.07;9.87;;;15.20;99.90;;;;;;5068292;28;20273;-85
2023/09/28 06:18:42;;;;;;;13.20;9.90;;;15.20;99.90;;;;;;5068711;28;20294;-84
2023/09/28 06:21:09;;;;;;;12.37;9.70;;;15.20;99.90;;;;;;5070014;28;20227;-84
2023/09/28 06:23:36;;;;;;;10.60;9.60;;;15.20;99.90;;;;;;5051768;28;20245;-85
2023/09/28 06:26:03;;;;;;;11.33;9.97;;;15.20;99.90;;;;;;5052553;28;20237;-84
2023/09/28 06:28:30;;;;;;;13.73;10.27;;;15.20;99.90;;;;;;5052415;28;20223;-85
2023/09/28 06:30:57;;;;;;;11.90;10.23;;;15.30;99.90;;;;;;5052921;28;20223;-84
2023/09/28 06:33:25;;;;;;;13.47;9.87;;;15.30;99.90;;;;;;5068751;28;20585;-84
2023/09/28 06:35:53;;;;;;;10.07;9.10;;;15.40;99.90;;;;;;5054530;28;20305;-84
2023/09/28 06:38:19;;;;;;;11.03;9.83;;;15.40;99.90;;;;;;5067869;28;20232;-85
2023/09/28 06:40:47;;;;;;;11.03;9.43;;;15.50;99.90;;;;;;5070654;28;20735;-85
2023/09/28 06:43:14;;;;;;;11.40;9.33;;;15.60;99.90;;;;;;5051983;28;20231;-84
2023/09/28 06:45:41;;;;;;;13.30;9.47;;;15.70;99.90;;;;;;5070862;28;20280;-84
2023/09/28 06:48:08;;;;;;;9.93;8.90;;;15.70;99.90;;;;;;5051764;28;20223;-85
2023/09/28 06:50:39;;;;;;;12.47;10.17;;;15.80;99.90;;;;;;5070583;28;20701;-84
2023/09/28 06:53:05;;;;;;;10.70;8.97;;;15.90;99.90;;;;;;5063524;28;20222;-84
2023/09/28 06:55:32;;;;;;;9.93;8.73;;;16.00;99.90;;;;;;5071700;28;20329;-84
2023/09/28 06:57:59;;;;;;;10.77;8.53;;;16.10;99.90;;;;;;5072104;28;20700;-84
2023/09/28 07:00:26;;;;;;;9.17;8.03;;;16.10;99.90;;;;;;5089655;28;20223;-84
2023/09/28 07:02:55;;;;;;;9.27;8.37;;;16.20;99.90;;;;;;5071347;28;20222;-83
2023/09/28 07:05:22;;;;;;;9.37;8.40;;;16.20;99.90;;;;;;5071536;28;20826;-84
2023/09/28 07:07:50;;;;;;;9.57;8.67;;;16.30;99.90;;;;;;5090207;28;20280;-83
2023/09/28 07:10:17;;;;;;;11.18;8.70;;;16.30;99.90;;;;;;5071922;28;20237;-84
2023/09/28 07:12:44;;;;;;;9.40;8.27;;;16.40;99.90;;;;;;5071019;28;20689;-84
2023/09/28 07:15:11;;;;;;;9.67;8.57;;;16.40;99.90;;;;;;5076223;28;20736;-83
2023/09/28 07:17:38;;;;;;;9.80;8.60;;;16.50;99.90;;;;;;5050487;28;20228;-84
2023/09/28 07:20:06;;;;;;;10.50;8.43;;;16.60;99.90;;;;;;5045687;28;20605;-83
2023/09/28 07:22:33;;;;;;;8.60;7.70;;;16.60;99.90;;;;;;5047358;28;20228;-84
2023/09/28 07:25:01;;;;;;;14.33;8.53;;;16.60;99.90;;;;;;5046026;28;20216;-85
2023/09/28 07:27:32;;;;;;;10.48;8.40;;;16.70;99.90;;;;;;5045599;28;20227;-83
2023/09/28 07:29:59;;;;;;;11.70;8.35;;;16.80;99.90;;;;;;5046332;28;20311;-84
2023/09/28 07:32:26;;;;;;;10.55;8.35;;;16.90;99.90;;;;;;5044266;28;20227;-83
2023/09/28 07:34:53;;;;;;;10.35;8.23;;;16.90;99.90;;;;;;5028475;28;20219;-84
2023/09/28 07:37:20;;;;;;;11.03;7.80;;;17.00;99.90;;;;;;5028163;28;20316;-85
2023/09/28 07:39:48;;;;;;;9.18;7.95;;;17.00;99.90;;;;;;5028067;28;20224;-84
2023/09/28 07:42:16;;;;;;;10.00;7.70;;;17.00;99.90;;;;;;5046375;28;20294;-83
2023/09/28 07:44:44;;;;;;;12.07;8.30;;;17.10;99.90;;;;;;5032650;28;20776;-81
2023/09/28 07:47:11;;;;;;;9.02;7.40;;;17.10;99.90;;;;;;5048024;28;20220;-80
2023/09/28 07:49:38;;;;;;;8.53;7.43;;;17.10;99.90;;;;;;5060033;28;20223;-80
2023/09/28 07:52:08;;;;;;;8.67;7.77;;;17.20;99.90;;;;;;5083698;28;20310;-80
2023/09/28 07:54:35;;;;;;;9.70;8.00;;;17.20;99.90;;;;;;5049857;28;20223;-80
2023/09/28 07:57:04;;;;;;;9.00;8.10;;;17.20;99.90;;;;;;5049835;28;20709;-81
2023/09/28 07:59:32;;;;;;;8.30;7.50;;;17.20;99.90;;;;;;5049782;28;20230;-82
2023/09/28 08:01:59;;;;;;;8.13;7.25;;;17.20;99.90;;;;;;5049373;28;20989;-81
2023/09/28 08:04:26;;;;;;;9.02;7.25;;;17.20;99.90;;;;;;5071004;28;20227;-80
2023/09/28 08:06:53;;;;;;;8.93;7.55;;;17.30;99.90;;;;;;5063008;28;20219;-80
2023/09/28 08:09:19;;;;;;;8.93;7.18;;;17.30;99.90;;;;;;5033902;28;20242;-80
2023/09/28 08:11:47;;;;;;;9.48;7.30;;;17.30;99.90;;;;;;5076351;28;20237;-81
2023/09/28 08:14:15;;;;;;;8.73;7.32;;;17.40;99.90;;;;;;5057834;28;20318;-80
2023/09/28 08:16:44;;;;;;;7.63;6.93;;;17.50;99.90;;;;;;5050439;28;20224;-80
2023/09/28 08:19:10;;;;;;;9.38;7.57;;;17.50;99.90;;;;;;5050611;28;20226;-81
2023/09/28 08:21:39;;;;;;;9.50;7.38;;;17.60;99.90;;;;;;5051118;28;20729;-81
2023/09/28 08:24:07;;;;;;;8.55;7.15;;;17.70;99.90;;;;;;5050487;28;20238;-81
2023/09/28 08:26:34;;;;;;;8.85;6.97;;;17.70;99.90;;;;;;5069029;28;20223;-80
2023/09/28 08:29:01;;;;;;;9.70;6.75;;;17.90;99.90;;;;;;5068257;28;20241;-81
2023/09/28 08:31:28;;;;;;;8.93;7.32;;;18.00;99.90;;;;;;5049923;28;20223;-80
2023/09/28 08:33:56;;;;;;;8.73;6.95;;;18.10;99.90;;;;;;5065260;28;20226;-81
2023/09/28 08:36:22;;;;;;;7.95;6.65;;;18.40;99.90;;;;;;5070350;28;20237;-80
2023/09/28 08:38:50;;;;;;;7.20;6.50;;;18.80;99.90;;;;;;5090808;28;20226;-82
2023/09/28 08:41:26;;;;;;;7.75;5.85;;;19.20;99.90;;;;;;5071249;28;20222;-80
2023/09/28 08:43:54;;;;;;;6.95;5.68;;;19.70;99.90;;;;;;5089324;28;20617;-81
2023/09/28 08:46:22;;;;;;;8.32;5.65;;;20.30;99.90;;;;;;5087717;28;20226;-80
2023/09/28 08:48:52;;;;;;;6.78;5.93;;;20.90;99.90;;;;;;5070150;28;20638;-80
2023/09/28 08:51:21;;;;;;;5.78;5.18;;;21.40;99.90;;;;;;5083691;28;20544;-81
2023/09/28 08:53:50;;;;;;;7.63;5.70;;;22.00;99.90;;;;;;5051180;28;20610;-80
2023/09/28 08:56:17;;;;;;;6.43;4.90;;;22.50;99.90;;;;;;5067980;28;20227;-80
2023/09/28 08:58:46;;;;;;;6.35;4.93;;;22.90;99.90;;;;;;5050417;28;20747;-80
2023/09/28 09:01:13;;;;;;;6.13;5.28;;;23.40;99.90;;;;;;5068306;28;20246;-81
2023/09/28 09:03:40;;;;;;;5.47;4.80;;;23.80;99.90;;;;;;5069369;28;20231;-81
2023/09/28 09:06:10;;;;;;;6.15;5.30;;;24.30;99.90;;;;;;5050955;28;20227;-81
2023/09/28 09:08:43;;;;;;;7.25;5.55;;;24.60;99.90;;;;;;5052029;28;20226;-80
2023/09/28 09:11:14;;;;;;;5.55;4.80;;;24.90;99.90;;;;;;5067700;28;20223;-81
2023/09/28 09:13:49;;;;;;;6.22;4.80;;;25.20;99.90;;;;;;5048446;28;20225;-82
2023/09/28 09:16:16;;;;;;;7.57;4.85;;;25.50;99.90;;;;;;5049062;28;20547;-81
2023/09/28 09:18:43;;;;;;;8.05;4.32;;;25.80;99.90;;;;;;5049866;28;20231;-84
2023/09/28 09:21:10;;;;;;;7.50;4.82;;;26.00;99.90;;;;;;5047456;28;20227;-79
2023/09/28 09:23:38;;;;;;;5.25;4.43;;;26.30;99.90;;;;;;5049072;28;20237;-77
2023/09/28 09:26:04;;;;;;;6.95;4.70;;;26.50;99.90;;;;;;5061389;28;20233;-78
2023/09/28 09:28:34;;;;;;;7.82;4.70;;;26.70;99.90;;;;;;5047480;28;20234;-78
2023/09/28 09:31:02;;;;;;;5.60;3.85;;;27.00;99.90;;;;;;5047304;28;20223;-78
2023/09/28 09:33:29;;;;;;;7.82;3.63;;;27.10;99.80;;;;;;5069122;28;20278;-77
2023/09/28 09:35:56;;;;;;;7.55;3.88;;;27.20;99.30;;;;;;5052646;28;20223;-78
2023/09/28 09:38:24;;;;;;;5.22;3.50;;;27.30;99.00;;;;;;5049001;28;20230;-77
2023/09/28 09:41:04;;;;;;;5.47;4.00;;;27.40;98.40;;;;;;5073680;28;20258;-78
2023/09/28 09:43:31;;;;;;;5.93;3.38;;;27.40;97.80;;;;;;5069255;28;20215;-80
2023/09/28 09:45:58;;;;;;;9.68;3.92;;;27.40;98.00;;;;;;5069644;28;20230;-79
2023/09/28 09:48:25;;;;;;;7.22;3.80;;;27.50;97.90;;;;;;5068468;28;20692;-78
2023/09/28 09:50:52;;;;;;;8.18;3.67;;;27.50;97.90;;;;;;5071565;28;20315;-78
2023/09/28 09:53:22;;;;;;;6.97;3.90;;;27.50;97.70;;;;;;5052961;28;20226;-78
2023/09/28 09:55:51;;;;;;;4.88;3.40;;;27.50;97.80;;;;;;5044935;28;20228;-78
2023/09/28 09:58:22;;;;;;;5.90;3.53;;;27.60;97.30;;;;;;5064453;28;20222;-80
2023/09/28 10:00:52;;;;;;;7.45;3.72;;;27.70;96.90;;;;;;5071743;28;20223;-79
2023/09/28 10:03:22;;;;;;;6.00;3.65;;;27.70;97.00;;;;;;5075611;28;20226;-78
2023/09/28 10:05:50;;;;;;;7.05;3.72;;;27.70;96.80;;;;;;5066454;28;20250;-79
2023/09/28 10:08:18;;;;;;;7.05;3.70;;;27.70;96.50;;;;;;5047334;28;20219;-79
2023/09/28 10:10:46;;;;;;;4.82;3.45;;;27.80;96.20;;;;;;5051087;28;20742;-78
2023/09/28 10:13:14;;;;;;;6.65;4.00;;;27.80;95.90;;;;;;5038456;28;20220;-79
2023/09/28 10:15:45;;;;;;;5.25;3.60;;;27.80;95.90;;;;;;5050098;28;20651;-81
2023/09/28 10:18:14;;;;;;;7.93;4.13;;;27.80;95.60;;;;;;5069943;28;20293;-80
2023/09/28 10:20:41;;;;;;;4.63;3.30;;;27.70;95.90;;;;;;5051923;28;20285;-80
2023/09/28 10:23:17;;;;;;;3.97;3.33;;;27.70;96.10;;;;;;5076535;28;20244;-80
2023/09/28 10:25:55;;;;;;;5.10;3.20;;;27.70;95.50;;;;;;5051433;28;20261;-79
2023/09/28 10:28:22;;;;;;;6.15;3.95;;;27.80;95.30;;;;;;5070181;28;20705;-80
2023/09/28 10:31:15;;;;;;;4.43;3.15;;;27.90;95.50;;;;;;5076365;28;20861;-81
2023/09/28 10:33:59;;;;;;;4.65;3.20;;;28.00;94.70;;;;;;5054538;28;20219;-79
2023/09/28 10:36:27;;;;;;;5.20;2.90;;;28.00;94.80;;;;;;5053274;28;20228;-80
2023/09/28 10:39:08;;;;;;;3.25;2.65;;;28.10;95.50;;;;;;5053371;28;20220;-80
2023/09/28 10:41:37;;;;;;;6.30;3.50;;;28.10;94.80;;;;;;5056011;28;20218;-80
2023/09/28 10:44:12;;;;;;;4.78;3.00;;;28.20;94.70;;;;;;5055632;28;20731;-79
2023/09/28 10:46:40;;;;;;;4.20;3.47;;;28.30;94.10;;;;;;5070959;28;20219;-80
2023/09/28 10:49:07;;;;;;;5.20;3.25;;;28.30;94.30;;;;;;5069856;28;20226;-79
2023/09/28 10:51:34;;;;;;;4.85;3.53;;;28.30;94.40;;;;;;5069037;28;20715;-80
2023/09/28 10:54:04;;;;;;;5.90;3.33;;;28.40;94.30;;;;;;5071032;28;20655;-79
2023/09/28 10:56:31;;;;;;;8.07;3.45;;;28.40;93.80;;;;;;5055685;28;20230;-79
2023/09/28 10:59:00;;;;;;;5.15;3.70;;;28.50;94.00;;;;;;5079276;28;20315;-80
2023/09/28 11:01:27;;;;;;;5.07;3.28;;;28.60;93.80;;;;;;5053494;28;20215;-79
2023/09/28 11:03:55;;;;;;;6.13;3.47;;;28.60;93.70;;;;;;5057040;28;20219;-80
2023/09/28 11:06:22;;;;;;;4.65;2.95;;;28.70;93.10;;;;;;5069851;28;20218;-80
2023/09/28 11:08:50;;;;;;;5.43;3.20;;;28.70;93.10;;;;;;5069063;28;20227;-77
2023/09/28 11:11:18;;;;;;;5.78;3.10;;;28.70;93.10;;;;;;5064518;28;20325;-79
2023/09/28 11:13:45;;;;;;;4.75;3.38;;;28.80;93.10;;;;;;5058636;28;20219;-77
2023/09/28 11:16:12;;;;;;;6.05;3.15;;;28.80;92.60;;;;;;5074432;28;20218;-79
2023/09/28 11:18:39;;;;;;;6.32;2.85;;;28.80;92.70;;;;;;5061237;28;20223;-77
2023/09/28 11:21:08;;;;;;;6.00;2.92;;;28.80;92.70;;;;;;5051599;28;20223;-77
2023/09/28 11:23:35;;;;;;;5.18;3.10;;;28.80;92.40;;;;;;5070958;28;20253;-79
2023/09/28 11:26:03;;;;;;;5.88;3.38;;;28.80;92.50;;;;;;5053786;28;20223;-78
2023/09/28 11:28:31;;;;;;;5.22;3.20;;;28.80;92.60;;;;;;5055129;28;20235;-79
2023/09/28 11:31:07;;;;;;;6.32;3.47;;;28.90;92.40;;;;;;5057940;28;20215;-79
2023/09/28 11:33:34;;;;;;;6.45;3.25;;;28.90;91.70;;;;;;5064421;28;20242;-79
2023/09/28 11:36:01;;;;;;;4.22;2.97;;;29.00;92.10;;;;;;5054104;28;20219;-80
2023/09/28 11:38:30;;;;;;;4.93;3.10;;;29.00;92.00;;;;;;5068789;28;20235;-77
2023/09/28 11:40:56;;;;;;;7.03;3.72;;;29.00;91.50;;;;;;5055305;28;20287;-78
2023/09/28 11:43:23;;;;;;;8.25;3.30;;;29.00;91.50;;;;;;5066396;28;20220;-80
2023/09/28 11:45:51;;;;;;;8.60;3.70;;;29.00;91.50;;;;;;5061926;28;20913;-79
2023/09/28 11:48:19;;;;;;;4.50;3.08;;;29.00;91.40;;;;;;5050669;28;20231;-79
2023/09/28 11:50:46;;;;;;;6.35;3.53;;;28.90;91.50;;;;;;5069352;28;20254;-78
2023/09/28 11:53:13;;;;;;;9.07;3.92;;;28.80;91.20;;;;;;5055597;28;20262;-80
2023/09/28 11:55:41;;;;;;;5.70;3.42;;;28.70;91.30;;;;;;5087798;28;20277;-80
2023/09/28 11:58:10;;;;;;;4.78;2.97;;;28.60;91.20;;;;;;5048575;28;20246;-79
2023/09/28 12:00:37;;;;;;;5.57;3.30;;;28.40;91.50;;;;;;5065037;28;20227;-80
2023/09/28 12:03:04;;;;;;;6.15;3.63;;;28.20;91.30;;;;;;5061530;28;20252;-79
2023/09/28 12:05:31;;;;;;;8.70;3.35;;;28.00;91.70;;;;;;5078315;28;20219;-79
2023/09/28 12:07:58;;;;;;;9.20;3.20;;;27.80;91.70;;;;;;5088584;28;20273;-79
2023/09/28 12:10:25;;;;;;;8.13;3.20;;;27.70;91.80;;;;;;5076107;28;20231;-80
2023/09/28 12:12:53;;;;;;;5.97;3.03;;;27.60;92.20;;;;;;5058616;28;20824;-80
2023/09/28 12:15:20;;;;;;;6.60;3.22;;;27.50;92.20;;;;;;5075200;28;20228;-80
2023/09/28 12:17:47;;;;;;;5.50;2.85;;;27.50;92.00;;;;;;5068951;28;20237;-80
2023/09/28 12:20:14;;;;;;;7.22;3.22;;;27.50;92.40;;;;;;5081405;28;20242;-79
2023/09/28 12:22:41;;;;;;;5.18;3.60;;;27.50;92.30;;;;;;5061799;28;20223;-80
2023/09/28 12:25:09;;;;;;;6.60;3.58;;;27.60;92.10;;;;;;5083769;28;20227;-80
2023/09/28 12:27:37;;;;;;;5.07;3.25;;;27.70;92.20;;;;;;5061890;28;20273;-80
2023/09/28 12:30:06;;;;;;;5.93;3.40;;;27.70;91.90;;;;;;5062485;28;20222;-80
2023/09/28 12:32:33;;;;;;;8.38;3.30;;;27.70;91.50;;;;;;5081733;28;20219;-79
2023/09/28 12:35:01;;;;;;;5.03;3.10;;;27.70;91.80;;;;;;5069775;28;20222;-81
2023/09/28 12:37:27;;;;;;;6.18;3.15;;;27.70;91.40;;;;;;5080559;28;20219;-80
2023/09/28 12:39:54;;;;;;;6.65;2.80;;;27.70;91.40;;;;;;5083340;28;20219;-81
2023/09/28 12:42:24;;;;;;;4.80;3.00;;;27.70;91.00;;;;;;5084597;28;20638;-81